Time;durP1;ratioP1;P1;durP2;ratioP2;P2;SDS_P1;SDS_P2;PMS_P1;PMS_P2;Temp;Humidity;BMP_temperature;BMP_pressure;BME280_temperature;BME280_humidity;BME280_pressure;Samples;Min_cycle;Max_cycle;Signal;HPM_P1;HPM_P2
2023/12/26 00:02:12;;;;;;;0.40;0.40;;;9.30;99.90;;;;;;5126422;27;20043;-77
2023/12/26 00:04:38;;;;;;;0.40;0.40;;;9.30;99.90;;;;;;5132152;27;20045;-80
2023/12/26 00:07:04;;;;;;;;;;;9.30;99.90;;;;;;5128421;27;20047;-79
2023/12/26 00:09:30;;;;;;;0.30;0.30;;;9.30;99.90;;;;;;5129815;27;19923;-77
2023/12/26 00:11:55;;;;;;;0.40;0.40;;;9.30;99.90;;;;;;5127273;27;20134;-78
2023/12/26 00:14:21;;;;;;;0.40;0.40;;;9.30;99.90;;;;;;5103732;27;20042;-78
2023/12/26 00:16:47;;;;;;;0.50;0.50;;;9.30;99.90;;;;;;5120980;27;20627;-80
2023/12/26 00:19:12;;;;;;;0.38;0.38;;;9.30;99.90;;;;;;5104560;27;20049;-82
2023/12/26 00:21:39;;;;;;;0.40;0.40;;;9.30;99.90;;;;;;5125601;27;20042;-81
2023/12/26 00:24:06;;;;;;;0.20;0.20;;;9.30;99.90;;;;;;5123452;27;20061;-79
2023/12/26 00:26:32;;;;;;;0.30;0.30;;;9.30;99.90;;;;;;5122491;27;20060;-81
2023/12/26 00:28:58;;;;;;;0.40;0.40;;;9.40;99.90;;;;;;5123652;27;20081;-77
2023/12/26 00:31:24;;;;;;;0.40;0.40;;;9.40;99.90;;;;;;5110502;28;20074;-80
2023/12/26 00:33:49;;;;;;;0.40;0.40;;;9.40;99.90;;;;;;5073836;27;20046;-79
2023/12/26 00:36:18;;;;;;;0.40;0.40;;;9.50;99.90;;;;;;5121286;27;20517;-78
2023/12/26 00:38:45;;;;;;;0.30;0.30;;;9.40;99.90;;;;;;5123088;27;20087;-78
2023/12/26 00:41:14;;;;;;;0.40;0.40;;;9.50;99.90;;;;;;5124619;27;20496;-78
2023/12/26 00:43:40;;;;;;;0.30;0.30;;;9.50;99.90;;;;;;5135171;27;20070;-79
2023/12/26 00:46:06;;;;;;;0.35;0.35;;;9.50;99.90;;;;;;5126373;27;20086;-76
2023/12/26 00:48:32;;;;;;;0.38;0.38;;;9.50;99.90;;;;;;5127321;27;20483;-76
2023/12/26 00:50:58;;;;;;;0.40;0.40;;;9.50;99.90;;;;;;5128557;27;20476;-75
2023/12/26 00:53:24;;;;;;;0.40;0.40;;;9.50;99.90;;;;;;5127819;27;20051;-80
2023/12/26 00:55:50;;;;;;;0.40;0.40;;;9.50;99.90;;;;;;5126416;27;20039;-77
2023/12/26 00:58:16;;;;;;;;;;;9.50;99.90;;;;;;5128848;27;20146;-77
2023/12/26 01:00:42;;;;;;;0.40;0.40;;;9.50;99.90;;;;;;5126860;27;20026;-79
2023/12/26 01:03:09;;;;;;;0.40;0.40;;;9.50;99.90;;;;;;5111809;27;20091;-80
2023/12/26 01:05:35;;;;;;;0.40;0.40;;;9.50;99.90;;;;;;5111285;27;20043;-76
2023/12/26 01:08:00;;;;;;;0.40;0.40;;;9.50;99.90;;;;;;5099122;27;20046;-76
2023/12/26 01:10:26;;;;;;;0.47;0.47;;;9.50;99.90;;;;;;5121290;27;20043;-75
2023/12/26 01:12:52;;;;;;;0.35;0.35;;;9.50;99.90;;;;;;5133432;27;20043;-80
2023/12/26 01:15:18;;;;;;;0.40;0.40;;;9.50;99.90;;;;;;5131216;27;20035;-77
2023/12/26 01:17:44;;;;;;;0.38;0.38;;;9.50;99.90;;;;;;5114215;27;20036;-79
2023/12/26 01:20:10;;;;;;;0.40;0.40;;;9.50;99.90;;;;;;5132109;27;20434;-79
2023/12/26 01:22:36;;;;;;;0.40;0.40;;;9.50;99.90;;;;;;5135309;27;20035;-75
2023/12/26 01:25:02;;;;;;;;;;;9.50;99.90;;;;;;5115209;27;20536;-80
2023/12/26 01:27:28;;;;;;;0.40;0.40;;;9.50;99.90;;;;;;5132675;27;19919;-79
2023/12/26 01:29:53;;;;;;;0.40;0.40;;;9.50;99.90;;;;;;5130851;27;20082;-79
2023/12/26 01:32:19;;;;;;;0.30;0.30;;;9.50;99.90;;;;;;5131441;27;20047;-76
2023/12/26 01:34:45;;;;;;;0.40;0.40;;;9.50;99.90;;;;;;5093318;27;20032;-77
2023/12/26 01:37:11;;;;;;;0.32;0.32;;;9.50;99.90;;;;;;5131919;27;20039;-77
2023/12/26 01:39:37;;;;;;;0.40;0.40;;;9.50;99.90;;;;;;5131550;27;20077;-77
2023/12/26 01:42:03;;;;;;;0.30;0.30;;;9.50;99.90;;;;;;5133928;27;20130;-76
2023/12/26 01:44:28;;;;;;;0.30;0.30;;;9.50;99.90;;;;;;5130602;27;20038;-79
2023/12/26 01:46:54;;;;;;;0.40;0.40;;;9.50;99.90;;;;;;5131842;27;20479;-77
2023/12/26 01:49:20;;;;;;;;;;;9.50;99.90;;;;;;5142432;27;20063;-78
2023/12/26 01:51:48;;;;;;;0.75;0.75;;;9.50;99.90;;;;;;5132996;27;20333;-80
2023/12/26 01:54:14;;;;;;;0.30;0.30;;;9.50;99.90;;;;;;5103204;27;20032;-76
2023/12/26 01:56:40;;;;;;;0.60;0.60;;;9.50;99.90;;;;;;5131390;27;20039;-79
2023/12/26 01:59:07;;;;;;;0.30;0.30;;;9.50;99.90;;;;;;5130279;27;20167;-80
2023/12/26 02:01:34;;;;;;;0.40;0.40;;;9.50;99.90;;;;;;5133134;27;20047;-76
2023/12/26 02:04:01;;;;;;;0.40;0.40;;;9.50;99.90;;;;;;5114267;27;20054;-76
2023/12/26 02:06:30;;;;;;;0.40;0.40;;;9.40;99.90;;;;;;5129707;27;20039;-79
2023/12/26 02:08:56;;;;;;;0.40;0.40;;;9.40;99.90;;;;;;5128512;27;20130;-78
2023/12/26 02:11:22;;;;;;;1.55;1.45;;;9.40;99.90;;;;;;5115068;27;20175;-77
2023/12/26 02:13:48;;;;;;;0.40;0.40;;;9.50;99.90;;;;;;5133467;27;20047;-79
2023/12/26 02:16:18;;;;;;;0.40;0.40;;;9.50;99.90;;;;;;5130365;27;20046;-79
2023/12/26 02:18:44;;;;;;;0.65;0.50;;;9.50;99.90;;;;;;5130651;27;20086;-80
2023/12/26 02:21:10;;;;;;;0.40;0.40;;;9.50;99.90;;;;;;5130317;27;20090;-80
2023/12/26 02:23:38;;;;;;;0.40;0.40;;;9.50;99.90;;;;;;5115600;27;20061;-79
2023/12/26 02:26:06;;;;;;;0.65;0.43;;;9.50;99.90;;;;;;5114802;27;20050;-79
2023/12/26 02:28:36;;;;;;;0.30;0.30;;;9.50;99.90;;;;;;5134427;27;20075;-80
2023/12/26 02:31:03;;;;;;;1.25;0.47;;;9.50;99.90;;;;;;5132386;27;20129;-79
2023/12/26 02:33:30;;;;;;;0.30;0.30;;;9.50;99.90;;;;;;5129949;27;20369;-78
2023/12/26 02:36:00;;;;;;;0.47;0.47;;;9.50;99.90;;;;;;5130753;27;20058;-77
2023/12/26 02:38:26;;;;;;;0.40;0.40;;;9.50;99.90;;;;;;5132055;27;20082;-79
2023/12/26 02:40:52;;;;;;;0.60;0.60;;;9.50;99.90;;;;;;5129529;27;20063;-76
2023/12/26 02:43:26;;;;;;;0.40;0.40;;;9.50;99.90;;;;;;5113363;27;20035;-77
2023/12/26 02:45:52;;;;;;;0.40;0.40;;;9.50;99.90;;;;;;5129250;27;20046;-80
2023/12/26 02:48:18;;;;;;;0.40;0.40;;;9.50;99.90;;;;;;5133076;27;20078;-76
2023/12/26 02:50:47;;;;;;;;;;;9.50;99.90;;;;;;5136081;27;20077;-76
2023/12/26 02:53:13;;;;;;;0.65;0.65;;;9.40;99.90;;;;;;5135955;27;19926;-79
2023/12/26 02:55:40;;;;;;;1.45;0.82;;;9.40;99.90;;;;;;5111710;27;20031;-80
2023/12/26 02:58:06;;;;;;;0.30;0.30;;;9.40;99.90;;;;;;5127909;27;20135;-79
2023/12/26 03:00:32;;;;;;;0.35;0.35;;;10.40;99.90;;;;;;5109971;27;20122;-77
2023/12/26 03:02:57;;;;;;;0.50;0.50;;;9.30;99.90;;;;;;5114942;27;20070;-78
2023/12/26 03:05:23;;;;;;;0.50;0.50;;;9.20;99.90;;;;;;5129004;27;20574;-78
2023/12/26 03:07:49;;;;;;;0.50;0.50;;;9.10;99.90;;;;;;5110723;27;20100;-78
2023/12/26 03:10:15;;;;;;;0.45;0.45;;;9.00;99.90;;;;;;5133056;27;20038;-81
2023/12/26 03:12:41;;;;;;;2.72;1.20;;;9.00;99.90;;;;;;5129535;27;20481;-77
2023/12/26 03:15:08;;;;;;;0.43;0.43;;;9.00;99.90;;;;;;5131860;27;20083;-77
2023/12/26 03:17:34;;;;;;;0.40;0.40;;;8.90;99.90;;;;;;5136031;27;20436;-79
2023/12/26 03:20:00;;;;;;;0.40;0.40;;;8.90;99.90;;;;;;5131075;27;20134;-80
2023/12/26 03:22:25;;;;;;;0.40;0.40;;;8.90;99.90;;;;;;5129173;27;20513;-76
2023/12/26 03:24:51;;;;;;;0.38;0.38;;;8.80;99.90;;;;;;5128917;27;20337;-78
2023/12/26 03:27:17;;;;;;;0.50;0.50;;;8.80;99.90;;;;;;5129357;27;20073;-77
2023/12/26 03:29:42;;;;;;;0.40;0.40;;;8.70;99.90;;;;;;5113962;27;20051;-76
2023/12/26 03:32:09;;;;;;;0.40;0.40;;;8.70;99.90;;;;;;5127265;27;20476;-75
2023/12/26 03:34:38;;;;;;;0.30;0.30;;;8.60;99.90;;;;;;5112649;27;20039;-75
2023/12/26 03:37:04;;;;;;;0.38;0.38;;;8.60;99.90;;;;;;5122459;27;20039;-76
2023/12/26 03:39:29;;;;;;;0.45;0.45;;;8.50;99.90;;;;;;5127612;27;21314;-76
2023/12/26 03:41:56;;;;;;;0.57;0.57;;;8.50;99.90;;;;;;5130531;27;20418;-79
2023/12/26 03:44:21;;;;;;;1.77;1.67;;;8.50;99.90;;;;;;5131271;27;20047;-76
2023/12/26 03:46:47;;;;;;;0.57;0.57;;;8.50;99.90;;;;;;5128449;27;20050;-77
2023/12/26 03:49:13;;;;;;;1.65;1.27;;;8.50;99.90;;;;;;5110336;27;20039;-77
2023/12/26 03:51:39;;;;;;;0.40;0.40;;;8.50;99.90;;;;;;5111150;27;20048;-77
2023/12/26 03:54:04;;;;;;;0.40;0.40;;;8.50;99.90;;;;;;5112421;27;20433;-77
2023/12/26 03:56:31;;;;;;;0.43;0.43;;;8.50;99.90;;;;;;5131639;27;20038;-79
2023/12/26 03:58:57;;;;;;;1.20;1.20;;;8.50;99.90;;;;;;5129222;27;20059;-77
2023/12/26 04:01:23;;;;;;;0.60;0.60;;;8.50;99.90;;;;;;5128867;27;20042;-79
2023/12/26 04:03:54;;;;;;;0.40;0.40;;;8.50;99.90;;;;;;5128438;27;20428;-79
2023/12/26 04:06:20;;;;;;;0.40;0.40;;;8.40;99.90;;;;;;5132378;27;20075;-79
2023/12/26 04:08:46;;;;;;;0.50;0.50;;;8.40;99.90;;;;;;5127025;27;20051;-81
2023/12/26 04:11:13;;;;;;;0.40;0.40;;;8.30;99.90;;;;;;5071710;27;20031;-78
2023/12/26 04:13:39;;;;;;;0.47;0.47;;;8.20;99.90;;;;;;5128920;27;20102;-80
2023/12/26 04:16:06;;;;;;;0.40;0.40;;;8.10;99.90;;;;;;5106801;27;20384;-80
2023/12/26 04:18:32;;;;;;;0.57;0.52;;;8.10;99.90;;;;;;5110984;27;20041;-79
2023/12/26 04:20:58;;;;;;;0.88;0.88;;;8.10;99.90;;;;;;5110826;28;20125;-79
2023/12/26 04:23:23;;;;;;;0.40;0.40;;;8.00;99.90;;;;;;5127611;27;20038;-80
2023/12/26 04:25:49;;;;;;;0.45;0.45;;;8.10;99.90;;;;;;5115433;27;20119;-79
2023/12/26 04:28:15;;;;;;;0.60;0.60;;;7.90;99.90;;;;;;5130655;27;20050;-75
2023/12/26 04:30:41;;;;;;;1.17;1.17;;;7.90;99.90;;;;;;5132340;27;20031;-75
2023/12/26 04:33:07;;;;;;;0.40;0.40;;;7.80;99.90;;;;;;5126214;27;20062;-78
2023/12/26 04:35:37;;;;;;;0.63;0.63;;;7.90;99.90;;;;;;5127843;27;20042;-79
2023/12/26 04:38:03;;;;;;;0.40;0.40;;;7.90;99.90;;;;;;5133210;27;20474;-78
2023/12/26 04:40:29;;;;;;;0.40;0.40;;;7.90;99.90;;;;;;5111627;28;20047;-80
2023/12/26 04:42:55;;;;;;;0.45;0.45;;;7.90;99.90;;;;;;5112360;27;20058;-77
2023/12/26 04:45:20;;;;;;;0.68;0.60;;;7.90;99.90;;;;;;5093831;27;20035;-79
2023/12/26 04:47:46;;;;;;;1.67;1.58;;;8.00;99.90;;;;;;5116190;27;20057;-77
2023/12/26 04:50:12;;;;;;;0.40;0.40;;;8.10;99.90;;;;;;5132959;27;20035;-79
2023/12/26 04:52:38;;;;;;;0.55;0.55;;;8.10;99.90;;;;;;5131388;27;20044;-79
2023/12/26 04:55:04;;;;;;;0.75;0.75;;;8.10;99.90;;;;;;5117290;27;20043;-78
2023/12/26 04:57:29;;;;;;;1.35;1.13;;;8.10;99.90;;;;;;5132383;27;20035;-81
2023/12/26 04:59:55;;;;;;;0.98;0.93;;;8.10;99.90;;;;;;5131817;27;20329;-77
2023/12/26 05:02:21;;;;;;;0.40;0.40;;;8.10;99.90;;;;;;5131563;27;20035;-76
2023/12/26 05:04:46;;;;;;;0.40;0.40;;;8.10;99.90;;;;;;5131486;27;20173;-76
2023/12/26 05:07:13;;;;;;;0.70;0.70;;;7.60;99.90;;;;;;5135743;27;20050;-78
2023/12/26 05:09:39;;;;;;;1.80;0.70;;;8.20;99.90;;;;;;5130358;27;20062;-78
2023/12/26 05:12:07;;;;;;;0.43;0.43;;;8.20;99.90;;;;;;5131476;27;20467;-79
2023/12/26 05:14:32;;;;;;;1.08;1.08;;;8.10;99.90;;;;;;5133869;27;20042;-81
2023/12/26 05:16:58;;;;;;;0.45;0.45;;;8.10;99.90;;;;;;5130924;27;20043;-75
2023/12/26 05:19:24;;;;;;;0.40;0.40;;;8.10;99.90;;;;;;5132246;27;20053;-82
2023/12/26 05:21:51;;;;;;;1.17;1.17;;;8.10;99.90;;;;;;5131205;27;20046;-79
2023/12/26 05:24:16;;;;;;;0.43;0.43;;;8.20;99.90;;;;;;5131334;27;20058;-78
2023/12/26 05:26:43;;;;;;;0.70;0.70;;;8.20;99.90;;;;;;5139830;27;20046;-79
2023/12/26 05:29:10;;;;;;;0.40;0.40;;;8.10;99.90;;;;;;5131149;27;20082;-80
2023/12/26 05:31:36;;;;;;;0.52;0.52;;;8.10;99.90;;;;;;5141021;27;20050;-81
2023/12/26 05:34:04;;;;;;;0.82;0.82;;;8.10;99.90;;;;;;5132425;27;20042;-79
2023/12/26 05:36:30;;;;;;;0.57;0.52;;;8.20;99.90;;;;;;5112951;27;20122;-76
2023/12/26 05:38:57;;;;;;;0.40;0.40;;;8.20;99.90;;;;;;5133879;27;20280;-78
2023/12/26 05:41:23;;;;;;;0.68;0.68;;;8.30;99.90;;;;;;5132915;27;20426;-78
2023/12/26 05:43:49;;;;;;;;;;;8.30;99.90;;;;;;5130742;27;20043;-79
2023/12/26 05:46:14;;;;;;;0.30;0.30;;;8.30;99.90;;;;;;5132207;27;19969;-80
2023/12/26 05:48:43;;;;;;;0.73;0.73;;;8.20;99.90;;;;;;5113321;27;20047;-78
2023/12/26 05:51:09;;;;;;;0.70;0.70;;;8.30;99.90;;;;;;5126687;27;20119;-78
2023/12/26 05:53:35;;;;;;;0.35;0.35;;;8.20;99.90;;;;;;5132725;27;20048;-77
2023/12/26 05:56:00;;;;;;;0.40;0.40;;;8.20;99.90;;;;;;5112267;27;20130;-77
2023/12/26 05:58:27;;;;;;;0.40;0.40;;;8.20;99.90;;;;;;5110461;27;20118;-77
2023/12/26 06:00:54;;;;;;;0.70;0.70;;;8.30;99.90;;;;;;5130167;27;20042;-80
2023/12/26 06:03:20;;;;;;;0.40;0.40;;;8.30;99.90;;;;;;5113221;27;20134;-82
2023/12/26 06:05:47;;;;;;;0.40;0.40;;;8.30;99.90;;;;;;5131325;27;20494;-78
2023/12/26 06:08:17;;;;;;;0.40;0.40;;;8.20;99.90;;;;;;5118751;27;20126;-77
2023/12/26 06:10:42;;;;;;;0.40;0.40;;;8.30;99.90;;;;;;5128246;27;20169;-80
2023/12/26 06:13:08;;;;;;;1.23;1.20;;;8.30;99.90;;;;;;5112607;27;20114;-79
2023/12/26 06:15:34;;;;;;;0.50;0.50;;;8.30;99.90;;;;;;5095562;27;20038;-78
2023/12/26 06:18:00;;;;;;;0.50;0.50;;;8.30;99.90;;;;;;5129746;27;20371;-79
2023/12/26 06:20:27;;;;;;;5.72;0.73;;;8.30;99.90;;;;;;5134448;27;20423;-80
2023/12/26 06:22:55;;;;;;;0.32;0.32;;;8.30;99.90;;;;;;5114384;27;20118;-80
2023/12/26 06:25:21;;;;;;;0.40;0.40;;;8.30;99.90;;;;;;5134465;27;20441;-76
2023/12/26 06:27:47;;;;;;;0.40;0.40;;;8.20;99.90;;;;;;5131944;27;20039;-78
2023/12/26 06:30:13;;;;;;;0.30;0.30;;;8.20;99.90;;;;;;5113015;27;20047;-77
2023/12/26 06:32:39;;;;;;;;;;;8.10;99.90;;;;;;5112892;27;20043;-78
2023/12/26 06:35:06;;;;;;;0.52;0.52;;;8.10;99.90;;;;;;5131596;27;19921;-80
2023/12/26 06:37:32;;;;;;;0.40;0.40;;;8.10;99.90;;;;;;5131206;27;20043;-76
2023/12/26 06:39:57;;;;;;;0.40;0.40;;;8.10;99.90;;;;;;5112214;27;20126;-76
2023/12/26 06:42:23;;;;;;;0.40;0.40;;;8.00;99.90;;;;;;5129591;27;20615;-78
2023/12/26 06:44:49;;;;;;;0.60;0.60;;;8.00;99.90;;;;;;5131141;27;20118;-75
2023/12/26 06:47:15;;;;;;;0.40;0.40;;;8.00;99.90;;;;;;5112286;27;20043;-79
2023/12/26 06:49:47;;;;;;;4.57;0.70;;;7.90;99.90;;;;;;5129470;27;20088;-79
2023/12/26 06:52:16;;;;;;;0.45;0.45;;;7.90;99.90;;;;;;5109592;27;20043;-79
2023/12/26 06:54:43;;;;;;;0.40;0.40;;;8.00;99.90;;;;;;5111892;27;20503;-80
2023/12/26 06:57:15;;;;;;;0.40;0.40;;;8.00;99.90;;;;;;5127989;27;20384;-80
2023/12/26 06:59:52;;;;;;;0.38;0.38;;;8.10;99.90;;;;;;5129970;27;20387;-77
2023/12/26 07:02:18;;;;;;;1.48;1.38;;;8.10;99.90;;;;;;5128884;27;20046;-78
2023/12/26 07:04:44;;;;;;;0.40;0.40;;;8.10;99.90;;;;;;5131145;27;20042;-77
2023/12/26 07:07:11;;;;;;;0.40;0.40;;;8.10;99.90;;;;;;5129346;27;20399;-77
2023/12/26 07:09:40;;;;;;;0.40;0.40;;;8.10;99.90;;;;;;5128864;27;20434;-79
2023/12/26 07:12:12;;;;;;;0.40;0.40;;;8.10;99.90;;;;;;5112223;27;20105;-79
2023/12/26 07:14:38;;;;;;;0.40;0.40;;;8.00;99.90;;;;;;5126096;27;20456;-80
2023/12/26 07:17:04;;;;;;;0.70;0.70;;;8.10;99.90;;;;;;5128809;27;20117;-78
2023/12/26 07:19:29;;;;;;;;;;;8.00;99.90;;;;;;5130017;27;20043;-78
2023/12/26 07:21:55;;;;;;;0.40;0.40;;;8.00;99.90;;;;;;5131400;27;20181;-77
2023/12/26 07:24:21;;;;;;;1.15;0.50;;;7.90;99.90;;;;;;5137164;27;20035;-79
2023/12/26 07:26:47;;;;;;;0.50;0.50;;;8.00;99.90;;;;;;5134673;27;20043;-80
2023/12/26 07:29:12;;;;;;;1.33;1.30;;;7.90;99.90;;;;;;5129607;27;20039;-81
2023/12/26 07:31:40;;;;;;;0.68;0.68;;;8.00;99.90;;;;;;5110545;27;20392;-77
2023/12/26 07:34:08;;;;;;;0.50;0.50;;;8.00;99.90;;;;;;5130020;27;20034;-76
2023/12/26 07:36:37;;;;;;;0.50;0.50;;;8.00;99.90;;;;;;5129130;27;20092;-78
2023/12/26 07:39:04;;;;;;;0.50;0.50;;;8.00;99.90;;;;;;5129432;27;20043;-78
2023/12/26 07:41:32;;;;;;;0.45;0.45;;;8.00;99.90;;;;;;5130890;27;20042;-81
2023/12/26 07:43:57;;;;;;;0.40;0.40;;;8.10;99.90;;;;;;5130351;27;20039;-78
2023/12/26 07:46:24;;;;;;;2.53;1.48;;;8.00;99.90;;;;;;5129032;27;20476;-78
2023/12/26 07:48:51;;;;;;;0.50;0.50;;;8.10;99.90;;;;;;5112871;27;20366;-81
2023/12/26 07:51:16;;;;;;;0.40;0.40;;;8.10;99.90;;;;;;5128002;27;20042;-80
2023/12/26 07:53:42;;;;;;;1.17;0.50;;;8.10;99.90;;;;;;5130225;27;20498;-79
2023/12/26 07:56:08;;;;;;;2.47;1.30;;;8.10;99.90;;;;;;5136236;27;20035;-78
2023/12/26 07:58:34;;;;;;;0.43;0.43;;;8.10;99.90;;;;;;5129680;27;20043;-80
2023/12/26 08:01:02;;;;;;;0.30;0.30;;;8.10;99.90;;;;;;5129616;27;20038;-77
2023/12/26 08:03:27;;;;;;;0.30;0.30;;;8.10;99.90;;;;;;5092710;27;20444;-80
2023/12/26 08:05:53;;;;;;;0.57;0.57;;;8.10;99.90;;;;;;5128638;27;20083;-78
2023/12/26 08:08:19;;;;;;;0.40;0.40;;;8.10;99.90;;;;;;5086613;27;20027;-80
2023/12/26 08:10:47;;;;;;;0.40;0.40;;;8.10;99.90;;;;;;5128665;27;20073;-80
2023/12/26 08:13:13;;;;;;;0.40;0.40;;;8.00;99.90;;;;;;5110271;27;20464;-80
2023/12/26 08:15:39;;;;;;;0.40;0.40;;;7.90;99.90;;;;;;5129290;27;20163;-78
2023/12/26 08:18:05;;;;;;;0.50;0.50;;;7.90;99.90;;;;;;5129788;27;20114;-79
2023/12/26 08:20:33;;;;;;;;;;;8.00;99.90;;;;;;5131529;27;20058;-76
2023/12/26 08:22:59;;;;;;;0.40;0.40;;;8.00;99.90;;;;;;5127358;27;19946;-78
2023/12/26 08:25:25;;;;;;;3.80;1.92;;;8.00;99.90;;;;;;5130439;27;20039;-78
2023/12/26 08:27:50;;;;;;;0.40;0.40;;;8.00;99.90;;;;;;5132895;27;20100;-78
2023/12/26 08:30:16;;;;;;;0.47;0.47;;;8.00;99.90;;;;;;5127756;28;20109;-77
2023/12/26 08:32:42;;;;;;;0.50;0.50;;;8.00;99.90;;;;;;5115381;27;20381;-81
2023/12/26 08:35:08;;;;;;;0.60;0.60;;;8.00;99.90;;;;;;5093071;28;20039;-81
2023/12/26 08:37:34;;;;;;;0.40;0.40;;;8.00;99.90;;;;;;5127260;27;20027;-78
2023/12/26 08:39:59;;;;;;;0.40;0.40;;;8.00;99.90;;;;;;5109583;27;20572;-77
2023/12/26 08:42:25;;;;;;;1.35;1.35;;;8.10;99.90;;;;;;5127719;27;20042;-79
2023/12/26 08:44:51;;;;;;;0.50;0.50;;;8.00;99.90;;;;;;5092067;28;20040;-78
2023/12/26 08:47:17;;;;;;;0.65;0.65;;;8.00;99.90;;;;;;5128154;27;20050;-80
2023/12/26 08:49:42;;;;;;;0.47;0.47;;;8.10;99.90;;;;;;5131000;27;20047;-80
2023/12/26 08:52:09;;;;;;;0.50;0.50;;;8.10;99.90;;;;;;5127467;27;20041;-79
2023/12/26 08:54:35;;;;;;;1.05;1.05;;;8.10;99.90;;;;;;5133801;27;20051;-79
2023/12/26 08:57:00;;;;;;;0.47;0.47;;;8.10;99.90;;;;;;5133977;27;20038;-78
2023/12/26 08:59:26;;;;;;;0.60;0.60;;;8.10;99.90;;;;;;5084932;28;20625;-79
2023/12/26 09:01:53;;;;;;;0.50;0.50;;;8.10;99.90;;;;;;5111761;27;20079;-79
2023/12/26 09:04:26;;;;;;;0.50;0.50;;;8.20;99.90;;;;;;5112110;27;20482;-81
2023/12/26 09:06:53;;;;;;;0.40;0.40;;;8.20;99.90;;;;;;5127452;27;20035;-80
2023/12/26 09:09:20;;;;;;;1.10;0.70;;;8.20;99.90;;;;;;5111950;27;20453;-78
2023/12/26 09:11:46;;;;;;;0.50;0.50;;;8.20;99.90;;;;;;5127764;27;20149;-78
2023/12/26 09:14:13;;;;;;;;;;;8.30;99.90;;;;;;5116649;27;20035;-80
2023/12/26 09:16:46;;;;;;;0.60;0.60;;;8.30;99.90;;;;;;5126479;27;19926;-80
2023/12/26 09:19:12;;;;;;;0.40;0.40;;;8.30;99.90;;;;;;5122893;27;20047;-79
2023/12/26 09:21:37;;;;;;;2.65;2.05;;;8.40;99.90;;;;;;5121933;27;20071;-77
2023/12/26 09:24:03;;;;;;;0.50;0.50;;;8.40;99.90;;;;;;5112430;28;20081;-78
2023/12/26 09:26:32;;;;;;;0.50;0.50;;;8.50;99.90;;;;;;5103489;27;20046;-79
2023/12/26 09:28:58;;;;;;;0.45;0.45;;;8.50;99.90;;;;;;5126068;27;20069;-75
2023/12/26 09:31:24;;;;;;;0.40;0.40;;;8.50;99.90;;;;;;5127566;27;20042;-81
2023/12/26 09:33:49;;;;;;;0.30;0.30;;;8.50;99.90;;;;;;5144479;27;20504;-80
2023/12/26 09:36:15;;;;;;;0.40;0.40;;;8.50;99.90;;;;;;5106751;27;20038;-81
2023/12/26 09:38:42;;;;;;;0.50;0.50;;;8.60;99.90;;;;;;5147239;27;20039;-82
2023/12/26 09:41:10;;;;;;;2.78;2.58;;;8.60;99.90;;;;;;5141134;27;20039;-83
2023/12/26 09:43:36;;;;;;;0.85;0.85;;;8.50;99.90;;;;;;5124618;27;20565;-82
2023/12/26 09:46:03;;;;;;;0.40;0.40;;;8.60;99.90;;;;;;5134840;27;20032;-82
2023/12/26 09:48:33;;;;;;;2.38;2.28;;;8.60;99.90;;;;;;5137689;27;20065;-77
2023/12/26 09:51:06;;;;;;;0.50;0.50;;;8.50;99.90;;;;;;5104586;27;20043;-79
2023/12/26 09:53:35;;;;;;;0.60;0.60;;;8.60;99.90;;;;;;5136611;27;20034;-81
2023/12/26 09:56:01;;;;;;;0.30;0.30;;;8.60;99.90;;;;;;5137658;27;20100;-80
2023/12/26 09:58:28;;;;;;;0.32;0.32;;;8.60;99.90;;;;;;5119414;27;20062;-83
2023/12/26 10:00:54;;;;;;;0.40;0.40;;;8.60;99.90;;;;;;5139385;27;20047;-81
2023/12/26 10:03:21;;;;;;;0.40;0.40;;;8.60;99.90;;;;;;5137982;27;20119;-78
2023/12/26 10:05:47;;;;;;;0.40;0.40;;;8.60;99.90;;;;;;5134555;27;20499;-82
2023/12/26 10:08:14;;;;;;;3.67;1.80;;;8.70;99.90;;;;;;5124173;27;20114;-77
2023/12/26 10:10:40;;;;;;;0.70;0.70;;;8.70;99.90;;;;;;5122723;27;20408;-78
2023/12/26 10:13:06;;;;;;;0.47;0.47;;;8.70;99.90;;;;;;5124513;27;20039;-79
2023/12/26 10:15:33;;;;;;;0.40;0.40;;;8.60;99.90;;;;;;5125610;27;20041;-79
2023/12/26 10:18:00;;;;;;;0.68;0.43;;;8.60;99.90;;;;;;5095909;27;20504;-76
2023/12/26 10:20:32;;;;;;;6.00;1.38;;;8.60;99.90;;;;;;5108977;27;20043;-78
2023/12/26 10:23:03;;;;;;;0.40;0.40;;;8.70;99.90;;;;;;5118208;27;20043;-79
2023/12/26 10:25:33;;;;;;;1.60;1.50;;;8.70;99.90;;;;;;5140613;27;20043;-77
2023/12/26 10:27:59;;;;;;;0.40;0.40;;;8.70;99.90;;;;;;5127964;27;20154;-80
2023/12/26 10:30:26;;;;;;;0.40;0.40;;;8.70;99.90;;;;;;5124652;27;20035;-78
2023/12/26 10:33:01;;;;;;;;;;;8.80;99.90;;;;;;5128784;27;20472;-78
2023/12/26 10:35:27;;;;;;;0.45;0.45;;;8.80;99.90;;;;;;5126382;27;19927;-79
2023/12/26 10:38:02;;;;;;;0.52;0.50;;;8.80;99.90;;;;;;5103422;27;20092;-78
2023/12/26 10:40:28;;;;;;;0.50;0.50;;;8.80;99.90;;;;;;5089382;27;20039;-79
2023/12/26 10:42:56;;;;;;;0.50;0.50;;;8.80;99.90;;;;;;5124489;27;20050;-79
2023/12/26 10:45:23;;;;;;;0.40;0.40;;;8.90;99.90;;;;;;5119633;27;20130;-77
2023/12/26 10:47:51;;;;;;;0.50;0.50;;;8.80;99.90;;;;;;5121263;27;20374;-77
2023/12/26 10:50:18;;;;;;;0.88;0.82;;;8.90;99.90;;;;;;5124563;27;20039;-79
2023/12/26 10:53:21;;;;;;;1.25;0.95;;;8.90;99.90;;;;;;5125351;27;20046;-77
2023/12/26 10:55:48;;;;;;;0.30;0.30;;;9.00;99.90;;;;;;5106921;27;20151;-80
2023/12/26 10:58:29;;;;;;;0.40;0.40;;;8.90;99.90;;;;;;5088443;27;20035;-78
2023/12/26 13:53:17;;;;;;;0.50;0.50;;;7.30;99.90;;;;;;5130916;27;20395;-77
2023/12/26 13:56:20;;;;;;;0.50;0.50;;;7.20;99.90;;;;;;5098358;27;20039;-77
2023/12/26 13:59:27;;;;;;;0.50;0.50;;;7.20;99.90;;;;;;5121130;27;20039;-76
2023/12/26 14:02:30;;;;;;;0.52;0.52;;;7.20;99.90;;;;;;5134654;27;20081;-77
2023/12/26 14:05:34;;;;;;;0.50;0.50;;;7.30;99.90;;;;;;5134062;27;20047;-80
2023/12/26 14:08:37;;;;;;;0.85;0.85;;;7.30;99.90;;;;;;5134668;27;20039;-77
2023/12/26 14:11:40;;;;;;;0.50;0.50;;;7.30;99.90;;;;;;5121423;27;21402;-78
2023/12/26 14:14:44;;;;;;;0.50;0.50;;;7.40;99.90;;;;;;5116434;27;20089;-76
2023/12/26 14:17:47;;;;;;;0.50;0.50;;;7.60;99.90;;;;;;5079842;27;20887;-81
2023/12/26 14:20:50;;;;;;;0.50;0.50;;;7.60;99.90;;;;;;5102023;27;20126;-78
2023/12/26 14:23:54;;;;;;;0.50;0.50;;;7.40;99.90;;;;;;5120172;27;20496;-77
2023/12/26 14:26:57;;;;;;;6.65;1.13;;;7.40;99.90;;;;;;5120016;27;20082;-78
2023/12/26 14:30:00;;;;;;;0.50;0.50;;;7.40;99.90;;;;;;5120984;27;20051;-81
2023/12/26 14:33:04;;;;;;;0.40;0.40;;;7.40;99.90;;;;;;5103133;27;20039;-80
2023/12/26 14:36:07;;;;;;;0.40;0.40;;;7.40;99.90;;;;;;5129217;27;20049;-82
2023/12/26 14:39:10;;;;;;;0.40;0.40;;;7.30;99.90;;;;;;5120844;27;20046;-80
2023/12/26 14:42:14;;;;;;;0.55;0.55;;;7.20;99.90;;;;;;5126074;27;20051;-79
2023/12/26 14:45:17;;;;;;;0.50;0.50;;;7.10;99.90;;;;;;5123936;27;20421;-79
2023/12/26 14:48:20;;;;;;;0.50;0.50;;;7.00;99.90;;;;;;5127699;27;20035;-77
2023/12/26 14:51:23;;;;;;;0.50;0.50;;;6.90;99.90;;;;;;5103662;27;20040;-78
2023/12/26 14:54:27;;;;;;;5.63;1.83;;;6.80;99.90;;;;;;5123942;27;20541;-83
2023/12/26 14:57:30;;;;;;;0.40;0.40;;;6.80;99.90;;;;;;5126973;27;20039;-77
2023/12/26 15:00:34;;;;;;;0.60;0.60;;;6.70;99.90;;;;;;5124046;27;20051;-78
2023/12/26 15:02:59;;;;;;;0.40;0.40;;;6.60;99.90;;;;;;5123274;27;20043;-78
2023/12/26 15:05:33;;;;;;;0.68;0.68;;;6.60;99.90;;;;;;5127950;27;20122;-80
2023/12/26 15:07:59;;;;;;;0.50;0.50;;;6.50;99.90;;;;;;5112283;27;20073;-79
2023/12/26 15:10:25;;;;;;;0.60;0.60;;;6.50;99.90;;;;;;5132780;27;20042;-79
2023/12/26 15:12:51;;;;;;;0.45;0.45;;;6.40;99.90;;;;;;5131001;27;20054;-79
2023/12/26 15:15:17;;;;;;;1.17;1.08;;;6.40;99.90;;;;;;5108549;27;20406;-79
2023/12/26 15:17:44;;;;;;;0.65;0.65;;;6.40;99.90;;;;;;5107654;27;20051;-78
2023/12/26 15:20:10;;;;;;;0.60;0.60;;;6.40;99.90;;;;;;5123189;27;20497;-78
2023/12/26 15:22:35;;;;;;;0.65;0.65;;;6.50;99.90;;;;;;5127029;27;20038;-80
2023/12/26 15:25:01;;;;;;;0.57;0.57;;;6.50;99.90;;;;;;5126649;27;20043;-78
2023/12/26 15:27:27;;;;;;;0.50;0.50;;;6.50;99.90;;;;;;5106528;27;20055;-77
2023/12/26 15:29:52;;;;;;;0.65;0.65;;;6.50;99.90;;;;;;5120140;27;20122;-79
2023/12/26 15:32:18;;;;;;;0.50;0.50;;;6.50;99.90;;;;;;5124546;27;20047;-77
2023/12/26 15:34:44;;;;;;;0.43;0.43;;;6.60;99.90;;;;;;5124245;27;20040;-80
2023/12/26 15:37:10;;;;;;;0.60;0.60;;;6.60;99.90;;;;;;5132859;27;20164;-77
2023/12/26 15:39:36;;;;;;;0.60;0.60;;;6.60;99.90;;;;;;5130375;27;20047;-79
2023/12/26 15:42:03;;;;;;;0.50;0.50;;;6.60;99.90;;;;;;5120194;27;20130;-77
2023/12/26 15:44:29;;;;;;;0.60;0.60;;;6.50;99.90;;;;;;5109329;27;20050;-78
2023/12/26 15:46:54;;;;;;;0.65;0.65;;;6.40;99.90;;;;;;5123693;27;20036;-77
2023/12/26 15:49:21;;;;;;;0.43;0.43;;;6.20;99.90;;;;;;5119185;27;20039;-79
2023/12/26 15:51:46;;;;;;;0.50;0.50;;;6.10;99.90;;;;;;5105530;27;20047;-75
2023/12/26 15:54:15;;;;;;;0.60;0.60;;;6.00;99.90;;;;;;5120406;27;20050;-77
2023/12/26 15:56:42;;;;;;;0.50;0.50;;;6.00;99.90;;;;;;5124585;27;20065;-76
2023/12/26 15:59:07;;;;;;;0.52;0.52;;;5.90;99.90;;;;;;5119784;27;20039;-78
2023/12/26 16:01:33;;;;;;;0.60;0.60;;;5.80;99.90;;;;;;5101453;27;20038;-76
2023/12/26 16:03:59;;;;;;;1.48;1.48;;;5.90;99.90;;;;;;5119494;27;20048;-79